createdAt,value
2023-02-04T00:01:41.146Z,101895
2023-02-04T00:07:30.970Z,101902
2023-02-04T00:13:20.950Z,101903
2023-02-04T00:19:11.571Z,101919
2023-02-04T00:25:01.740Z,101919
2023-02-04T00:30:51.580Z,101930
2023-02-04T00:36:42.851Z,101938
2023-02-04T00:42:34.232Z,101937
2023-02-04T00:48:28.086Z,101944
2023-02-04T00:54:17.269Z,101965
2023-02-04T01:00:07.261Z,101960
2023-02-04T01:05:57.165Z,101964
2023-02-04T01:11:49.318Z,101969
2023-02-04T01:17:39.969Z,101968
2023-02-04T01:23:29.706Z,101980
2023-02-04T01:29:20.651Z,101979
2023-02-04T01:35:10.619Z,101979
2023-02-04T01:41:00.778Z,101997
2023-02-04T01:46:52.350Z,101996
2023-02-04T01:52:42.045Z,102001
2023-02-04T01:58:30.257Z,102008
2023-02-04T02:04:20.037Z,102012
2023-02-04T02:10:08.861Z,102020
2023-02-04T02:15:57.926Z,102023
2023-02-04T02:21:46.578Z,102035
2023-02-04T02:27:37.637Z,102034
2023-02-04T02:33:28.340Z,102041
2023-02-04T02:39:16.798Z,102051
2023-02-04T02:45:06.619Z,102053
2023-02-04T02:50:55.484Z,102055
2023-02-04T02:56:44.627Z,102062
2023-02-04T03:02:33.798Z,102064
2023-02-04T03:08:22.294Z,102063
2023-02-04T03:14:10.476Z,102074
2023-02-04T03:19:59.119Z,102071
2023-02-04T03:25:47.292Z,102088
2023-02-04T03:31:37.691Z,102091
2023-02-04T03:37:27.528Z,102088
2023-02-04T03:43:17.525Z,102090
2023-02-04T03:49:07.300Z,102099
2023-02-04T03:54:56.913Z,102102
2023-02-04T04:00:48.860Z,102110
2023-02-04T04:06:39.666Z,102118
2023-02-04T04:12:29.082Z,102114
2023-02-04T04:18:18.336Z,102121
2023-02-04T04:24:08.228Z,102125
2023-02-04T04:29:58.221Z,102126
2023-02-04T04:35:48.426Z,102122
2023-02-04T04:41:38.700Z,102126
2023-02-04T04:47:30.008Z,102125
2023-02-04T04:53:20.846Z,102133
2023-02-04T04:59:13.428Z,102126
2023-02-04T05:05:03.066Z,102143
2023-02-04T05:10:53.803Z,102154
2023-02-04T05:16:44.343Z,102165
2023-02-04T05:22:34.293Z,102168
2023-02-04T05:28:23.375Z,102167
2023-02-04T05:34:13.528Z,102171
2023-02-04T05:40:04.389Z,102165
2023-02-04T05:45:55.394Z,102165
2023-02-04T05:51:45.632Z,102182
2023-02-04T05:57:36.650Z,102180
2023-02-04T06:03:28.354Z,102192
2023-02-04T06:09:17.258Z,102192
2023-02-04T06:15:08.712Z,102207
2023-02-04T06:21:00.950Z,102205
2023-02-04T06:26:51.025Z,102231
2023-02-04T06:32:40.244Z,102219
2023-02-04T06:38:36.463Z,102221
2023-02-04T06:44:26.422Z,102231
2023-02-04T06:50:19.868Z,102233
2023-02-04T06:56:12.450Z,102238
2023-02-04T07:02:01.938Z,102244
2023-02-04T07:07:52.541Z,102258
2023-02-04T07:13:43.405Z,102262
2023-02-04T07:19:35.665Z,102268
2023-02-04T07:25:25.940Z,102268
2023-02-04T07:31:16.752Z,102276
2023-02-04T07:37:07.463Z,102283
2023-02-04T07:42:56.978Z,102289
2023-02-04T07:48:49.268Z,102292
2023-02-04T07:54:38.799Z,102307
2023-02-04T08:00:27.348Z,102311
2023-02-04T08:06:18.493Z,102314
2023-02-04T08:12:09.048Z,102320
2023-02-04T08:18:00.420Z,102325
2023-02-04T08:23:50.593Z,102324
2023-02-04T08:29:41.776Z,102334
2023-02-04T08:35:32.917Z,102335
2023-02-04T08:41:23.731Z,102337
2023-02-04T08:47:13.480Z,102342
2023-02-04T08:53:03.925Z,102348
2023-02-04T08:58:54.778Z,102352
2023-02-04T09:04:44.293Z,102357
2023-02-04T09:10:34.889Z,102378
2023-02-04T09:16:25.211Z,102378
2023-02-04T09:22:16.406Z,102378
2023-02-04T09:28:09.365Z,102376
2023-02-04T09:34:00.873Z,102385
2023-02-04T09:39:51.641Z,102396
2023-02-04T09:45:43.089Z,102394
2023-02-04T09:51:35.591Z,102411
2023-02-04T09:57:26.512Z,102414
2023-02-04T10:03:18.221Z,102418
2023-02-04T10:09:08.253Z,102429
2023-02-04T10:15:00.227Z,102440
2023-02-04T10:20:51.211Z,102431
2023-02-04T10:26:41.775Z,102431
2023-02-04T10:32:33.839Z,102430
2023-02-04T10:38:23.825Z,102431
2023-02-04T10:44:14.422Z,102435
2023-02-04T10:50:05.180Z,102433
2023-02-04T10:55:56.703Z,102428
2023-02-04T11:01:47.789Z,102438
2023-02-04T11:07:36.805Z,102436
2023-02-04T11:13:29.831Z,102436
2023-02-04T11:19:25.875Z,102428
2023-02-04T11:25:17.385Z,102430
2023-02-04T11:31:08.095Z,102438
2023-02-04T11:36:57.548Z,102438
2023-02-04T11:42:47.588Z,102426
2023-02-04T11:48:37.104Z,102426
2023-02-04T11:54:27.543Z,102430
2023-02-04T12:00:23.213Z,102434
2023-02-04T12:06:12.092Z,102440
2023-02-04T12:12:02.133Z,102435
2023-02-04T12:17:51.959Z,102435
2023-02-04T12:23:41.004Z,102443
2023-02-04T12:29:30.169Z,102444
2023-02-04T12:35:19.842Z,102434
2023-02-04T12:41:09.918Z,102428
2023-02-04T12:47:02.032Z,102440
2023-02-04T12:52:51.820Z,102444
2023-02-04T12:58:42.537Z,102444
2023-02-04T13:04:33.563Z,102440
2023-02-04T13:10:24.743Z,102435
2023-02-04T13:16:15.244Z,102433
2023-02-04T13:22:05.612Z,102440
2023-02-04T13:27:54.725Z,102442
2023-02-04T13:33:45.342Z,102445
2023-02-04T13:39:36.228Z,102442
2023-02-04T13:45:28.632Z,102440
2023-02-04T13:51:19.933Z,102424
2023-02-04T13:57:09.824Z,102421
2023-02-04T14:03:01.825Z,102424
2023-02-04T14:08:51.770Z,102425
2023-02-04T14:14:42.594Z,102424
2023-02-04T14:20:35.351Z,102431
2023-02-04T14:26:28.320Z,102439
2023-02-04T14:32:18.724Z,102441
2023-02-04T14:38:11.708Z,102441
2023-02-04T14:44:01.799Z,102424
2023-02-04T14:49:54.608Z,102435
2023-02-04T14:55:46.494Z,102437
2023-02-04T15:01:35.584Z,102440
2023-02-04T15:07:28.370Z,102436
2023-02-04T15:13:17.803Z,102442
2023-02-04T15:19:07.326Z,102456
2023-02-04T15:24:58.468Z,102453
2023-02-04T15:30:49.469Z,102452
2023-02-04T15:36:41.477Z,102460
2023-02-04T15:42:30.971Z,102463
2023-02-04T15:48:20.375Z,102461
2023-02-04T15:54:10.068Z,102467
2023-02-04T16:00:01.411Z,102466
2023-02-04T16:05:51.507Z,102467
2023-02-04T16:11:42.018Z,102471
2023-02-04T16:17:31.984Z,102470
2023-02-04T16:23:23.134Z,102480
2023-02-04T16:29:14.113Z,102475
2023-02-04T16:35:03.948Z,102478
2023-02-04T16:40:56.306Z,102489
2023-02-04T16:46:49.032Z,102485
2023-02-04T16:52:39.985Z,102484
2023-02-04T16:58:29.764Z,102492
2023-02-04T17:04:22.509Z,102497
2023-02-04T17:10:13.329Z,102506
2023-02-04T17:16:06.116Z,102520
2023-02-04T17:21:57.048Z,102523
2023-02-04T17:27:50.918Z,102531
2023-02-04T17:33:41.372Z,102525
2023-02-04T17:39:39.238Z,102528
2023-02-04T17:45:32.036Z,102533
2023-02-04T17:51:23.424Z,102534
2023-02-04T17:57:14.757Z,102534
2023-02-04T18:03:04.674Z,102528
2023-02-04T18:08:56.498Z,102519
2023-02-04T18:14:46.278Z,102524
2023-02-04T18:20:37.747Z,102530
2023-02-04T18:26:26.815Z,102533
2023-02-04T18:32:17.600Z,102531
2023-02-04T18:38:07.901Z,102532
2023-02-04T18:43:57.963Z,102529
2023-02-04T18:49:50.121Z,102533
2023-02-04T18:55:40.807Z,102525
2023-02-04T19:01:32.814Z,102513
2023-02-04T19:07:23.911Z,102516
2023-02-04T19:13:14.712Z,102518
2023-02-04T19:19:05.322Z,102522
2023-02-04T19:24:54.957Z,102529
2023-02-04T19:30:45.289Z,102534
2023-02-04T19:36:36.346Z,102538
2023-02-04T19:42:32.342Z,102531
2023-02-04T19:48:21.627Z,102534
2023-02-04T19:54:12.068Z,102534
2023-02-04T20:00:03.052Z,102536
2023-02-04T20:05:52.212Z,102534
2023-02-04T20:11:43.783Z,102538
2023-02-04T20:17:33.719Z,102534
2023-02-04T20:23:22.859Z,102539
2023-02-04T20:29:11.783Z,102555
2023-02-04T20:35:01.140Z,102552
2023-02-04T20:40:52.172Z,102545
2023-02-04T20:46:42.571Z,102551
2023-02-04T20:52:33.596Z,102552
2023-02-04T20:58:23.984Z,102550
2023-02-04T21:04:14.135Z,102548
2023-02-04T21:10:04.975Z,102542
2023-02-04T21:15:55.842Z,102536
2023-02-04T21:21:46.855Z,102540
2023-02-04T21:27:37.288Z,102536
2023-02-04T21:33:27.566Z,102539
2023-02-04T21:39:17.686Z,102536
2023-02-04T21:45:08.289Z,102539
2023-02-04T21:50:58.572Z,102539
2023-02-04T21:56:57.187Z,102541
2023-02-04T22:02:46.861Z,102534
2023-02-04T22:08:37.918Z,102536
2023-02-04T22:14:28.762Z,102549
2023-02-04T22:20:18.097Z,102550
2023-02-04T22:26:09.788Z,102547
2023-02-04T22:31:59.390Z,102547
2023-02-04T22:37:49.032Z,102531
2023-02-04T22:43:41.822Z,102533
2023-02-04T22:49:34.406Z,102529
2023-02-04T22:55:23.938Z,102530
2023-02-04T23:01:13.455Z,102529
2023-02-04T23:07:03.538Z,102522
2023-02-04T23:12:53.555Z,102516
2023-02-04T23:18:45.480Z,102519
2023-02-04T23:24:36.534Z,102514
2023-02-04T23:30:30.005Z,102515
2023-02-04T23:36:20.321Z,102531
2023-02-04T23:42:10.946Z,102539
2023-02-04T23:48:01.666Z,102546
2023-02-04T23:53:51.981Z,102546
2023-02-04T23:59:41.827Z,102538
